메인 페이지
METAR-TAF:

METAR-TAF

공항 :

고바노르 프란시스코 가브리엘리 국제공항

멘도사, 아르헨티나

위도: 32-50S, 경도: 068-47W, 고도: 705m

현재 날씨관측

예보는 10분 전, 08:00시(UTC)에 발표되었습니다.
남서2kt
온도 15°C
습도 51%
기압 1017 hPa
시정 10km 이상
1500m 미만 상공 구름 및 적란운 없음

METAR: SAME 150800Z 23002KT CAVOK 15/05 Q1017

시각: 05:10 (08:10 UTC)

예보

예보는 3 시간 10분 전, 05:00시(UTC)에 발표되었습니다.
예보 대상 시간: 15일 06시부터 16일 06시까지 (UTC)
남동10kt
시정 10km 이상
고도 4000ft 상공 구름 보통

TAF: SAME 150500Z 1506/1606 14010KT 9999 SCT040 TN16/1510Z TX33/1520Z

4,000개 이상의 공항 관측 자료 및 예보 (METAR 및 TAF 보고).

지도상에서 검색 가능한 기상관측소가 노란 점과 빨간 점으로 표시되어 있습니다.

기상관측소 명을 보려면 표시 위로 마우스를 이동하세요.

날씨 관측과 예보를 보려면 클릭하세요.

지도 변경 : 확대하려면 엑스 표시가 있는 녹색 버튼, 축소하려면 빼기 표시가 있는 녹색 버튼, 다음 페이지의 지도를 보려면 녹색 화살표를 클릭하세요.


METAR-TAF: